Time;durP1;ratioP1;P1;durP2;ratioP2;P2;SDS_P1;SDS_P2;PMS_P1;PMS_P2;Temp;Humidity;BMP_temperature;BMP_pressure;BME280_temperature;BME280_humidity;BME280_pressure;Samples;Min_cycle;Max_cycle;Signal;HPM_P1;HPM_P2
2021/12/05 00:23:09;;;;;;;69.43;38.70;;;;;;;-0.15;100.00;98596.41;6015104;23;20036;-79
2021/12/05 00:25:36;;;;;;;71.32;41.05;;;;;;;-0.09;100.00;98585.63;6024227;23;20035;-81
2021/12/05 00:28:38;;;;;;;69.10;39.53;;;;;;;0.00;100.00;98596.22;5997037;23;20039;-82
2021/12/05 00:31:31;;;;;;;72.20;40.03;;;;;;;0.05;100.00;98587.34;6132308;23;20032;-82
2021/12/05 00:34:13;;;;;;;72.97;40.83;;;;;;;0.06;100.00;98595.00;6132881;23;20010;-82
2021/12/05 01:00:05;;;;;;;74.25;42.03;;;;;;;0.01;100.00;98550.38;6132391;23;20025;-82
2021/12/05 01:02:50;;;;;;;77.60;44.35;;;;;;;-0.01;100.00;98557.44;6134617;23;20006;-82
2021/12/05 01:16:28;;;;;;;76.65;42.53;;;;;;;-0.47;100.00;98534.50;6068880;23;20021;-81
2021/12/05 01:18:55;;;;;;;80.63;43.15;;;;;;;-0.46;100.00;98525.78;6069993;23;20014;-81
2021/12/05 01:21:24;;;;;;;76.47;43.80;;;;;;;-0.53;100.00;98529.69;6071034;23;20475;-82
2021/12/05 01:24:01;;;;;;;78.10;43.65;;;;;;;-0.60;100.00;98527.63;6077113;23;20018;-82
2021/12/05 01:26:36;;;;;;;78.57;43.45;;;;;;;-0.67;100.00;98524.59;6090656;23;20085;-81
2021/12/05 01:39:11;;;;;;;75.13;41.60;;;;;;;-1.01;100.00;98527.66;6070294;23;20463;-81
2021/12/05 01:42:08;;;;;;;77.07;42.25;;;;;;;-0.91;100.00;98528.72;6078618;23;20011;-82
2021/12/05 01:50:06;;;;;;;71.60;40.50;;;;;;;-0.72;100.00;98518.88;6148871;23;20447;-79
2021/12/05 01:58:36;;;;;;;75.15;40.40;;;;;;;-0.93;100.00;98515.03;6109377;23;20056;-82
2021/12/05 02:12:20;;;;;;;72.22;41.90;;;;;;;-0.82;100.00;98513.44;6129297;23;20010;-82
2021/12/05 02:42:35;;;;;;;68.78;37.70;;;;;;;-1.00;100.00;98462.00;6110766;23;20104;-83
2021/12/05 02:45:06;;;;;;;65.75;39.75;;;;;;;-1.03;100.00;98459.59;6102915;23;20096;-83
2021/12/05 02:47:33;;;;;;;67.32;38.80;;;;;;;-1.02;100.00;98458.66;6125534;23;20010;-83
2021/12/05 02:50:01;;;;;;;66.85;38.30;;;;;;;-1.12;100.00;98449.81;6125838;23;20088;-82
2021/12/05 02:52:33;;;;;;;62.58;37.03;;;;;;;-1.19;100.00;98457.16;6123966;23;20021;-82
2021/12/05 02:55:10;;;;;;;67.13;38.95;;;;;;;-1.18;100.00;98452.81;6126225;23;20045;-83
2021/12/05 03:00:16;;;;;;;76.95;38.55;;;;;;;-1.42;100.00;98445.66;6149122;23;20304;-82
2021/12/05 03:02:45;;;;;;;66.95;39.22;;;;;;;-1.47;100.00;98447.66;6100724;23;20357;-83
2021/12/05 03:05:15;;;;;;;64.90;38.03;;;;;;;-1.53;100.00;98453.22;6125575;23;20316;-82
2021/12/05 03:07:42;;;;;;;67.85;39.13;;;;;;;-1.53;100.00;98445.44;6129716;23;20010;-81
2021/12/05 03:10:12;;;;;;;69.20;37.90;;;;;;;-1.52;100.00;98449.72;6127842;23;20447;-82
2021/12/05 03:12:45;;;;;;;67.28;39.28;;;;;;;-1.47;100.00;98452.84;6149950;23;20017;-81
2021/12/05 03:15:15;;;;;;;65.88;37.90;;;;;;;-1.47;100.00;98450.25;6127037;23;20017;-80
2021/12/05 03:17:43;;;;;;;71.38;38.90;;;;;;;-1.48;100.00;98448.63;6151151;23;20017;-81
2021/12/05 03:20:15;;;;;;;70.00;38.28;;;;;;;-1.54;100.00;98441.22;6127738;23;20313;-82
2021/12/05 03:22:40;;;;;;;69.57;39.50;;;;;;;-1.53;100.00;98442.88;6128323;23;20006;-81
2021/12/05 03:25:08;;;;;;;66.82;37.65;;;;;;;-1.50;100.00;98445.28;6124839;23;20431;-82
2021/12/05 03:27:34;;;;;;;68.28;36.75;;;;;;;-1.53;100.00;98445.44;6127624;23;20081;-84
2021/12/05 03:30:04;;;;;;;69.47;37.47;;;;;;;-1.54;100.00;98446.41;6127321;23;20098;-82
2021/12/05 03:32:33;;;;;;;67.10;37.47;;;;;;;-1.56;100.00;98443.06;6152070;23;20016;-82
2021/12/05 03:35:00;;;;;;;68.50;36.58;;;;;;;-1.57;100.00;98435.41;6152486;23;20026;-82
2021/12/05 03:37:27;;;;;;;65.35;37.42;;;;;;;-1.56;100.00;98448.25;6129289;23;20017;-82
2021/12/05 03:39:55;;;;;;;66.25;37.70;;;;;;;-1.58;100.00;98450.09;6153674;23;20447;-82
2021/12/05 03:42:21;;;;;;;64.97;36.33;;;;;;;-1.55;100.00;98438.72;6133248;23;20041;-82
2021/12/05 03:44:47;;;;;;;61.45;37.03;;;;;;;-1.53;100.00;98448.03;6142060;23;20022;-82
2021/12/05 03:47:13;;;;;;;63.35;36.72;;;;;;;-1.50;100.00;98442.69;6155968;23;20036;-82
2021/12/05 03:49:39;;;;;;;72.03;36.95;;;;;;;-1.48;100.00;98435.69;6139906;23;20017;-82
2021/12/05 03:52:14;;;;;;;65.50;37.58;;;;;;;-1.54;100.00;98437.81;6144259;23;20060;-81
2021/12/05 03:54:43;;;;;;;66.43;38.28;;;;;;;-1.56;100.00;98437.91;6145095;23;20018;-82
2021/12/05 03:57:09;;;;;;;63.75;37.20;;;;;;;-1.57;100.00;98436.22;6146750;23;20058;-82
2021/12/05 03:59:34;;;;;;;65.75;36.42;;;;;;;-1.58;100.00;98434.56;6145310;23;20026;-81
2021/12/05 04:02:04;;;;;;;63.95;37.90;;;;;;;-1.64;100.00;98440.13;6145583;23;19992;-81
2021/12/05 04:04:30;;;;;;;59.80;36.35;;;;;;;-1.70;100.00;98446.50;6145645;23;20076;-81
2021/12/05 04:06:56;;;;;;;63.58;35.78;;;;;;;-1.74;100.00;98450.19;6154285;23;20064;-82
2021/12/05 04:09:23;;;;;;;65.53;36.92;;;;;;;-1.75;100.00;98437.34;6124520;23;20014;-82
2021/12/05 04:11:58;;;;;;;66.13;35.72;;;;;;;-1.78;100.00;98443.56;6123960;23;20010;-82
2021/12/05 04:14:30;;;;;;;61.95;36.20;;;;;;;-1.79;100.00;98443.66;6124277;23;20014;-82
2021/12/05 04:16:59;;;;;;;67.05;36.85;;;;;;;-1.78;100.00;98440.13;6132410;23;20037;-82
2021/12/05 04:19:25;;;;;;;64.43;36.53;;;;;;;-1.74;100.00;98437.25;6126200;23;20069;-82
2021/12/05 04:21:51;;;;;;;61.55;36.78;;;;;;;-1.68;100.00;98449.00;6147593;23;20137;-82
2021/12/05 04:24:17;;;;;;;64.18;36.03;;;;;;;-1.66;100.00;98436.81;6124481;23;20358;-82
2021/12/05 04:26:43;;;;;;;64.53;35.85;;;;;;;-1.71;100.00;98454.38;6147059;23;20006;-82
2021/12/05 04:29:10;;;;;;;64.38;36.05;;;;;;;-1.69;100.00;98457.66;6122406;23;20014;-82
2021/12/05 04:31:38;;;;;;;59.30;34.80;;;;;;;-1.67;100.00;98461.00;6122287;23;20009;-81
2021/12/05 04:34:05;;;;;;;61.35;35.05;;;;;;;-1.67;100.00;98456.66;6123978;23;20009;-81
2021/12/05 04:36:31;;;;;;;70.40;37.53;;;;;;;-1.66;100.00;98460.91;6122145;23;20044;-81
2021/12/05 04:38:58;;;;;;;67.50;35.72;;;;;;;-1.69;100.00;98450.75;6122264;23;20096;-80
2021/12/05 04:41:24;;;;;;;65.32;36.25;;;;;;;-1.67;100.00;98456.66;6122715;23;20048;-81
2021/12/05 04:43:51;;;;;;;62.03;35.45;;;;;;;-1.69;100.00;98462.84;6122924;23;20009;-81
2021/12/05 04:46:21;;;;;;;64.85;36.63;;;;;;;-1.77;100.00;98463.31;6147363;23;20037;-80
2021/12/05 04:48:50;;;;;;;60.10;35.72;;;;;;;-1.81;100.00;98453.25;6122973;23;20028;-82
2021/12/05 04:51:18;;;;;;;62.28;37.25;;;;;;;-1.82;100.00;98452.41;6147774;23;20010;-80
2021/12/05 04:53:44;;;;;;;67.50;37.10;;;;;;;-1.83;100.00;98444.75;6124070;23;20048;-81
2021/12/05 04:56:10;;;;;;;63.28;37.28;;;;;;;-1.78;100.00;98433.22;6123695;23;20088;-81
2021/12/05 04:58:37;;;;;;;64.85;36.25;;;;;;;-1.75;100.00;98432.19;6126297;23;20022;-81
2021/12/05 05:01:05;;;;;;;62.58;35.75;;;;;;;-1.77;100.00;98429.69;6125713;23;20006;-82
2021/12/05 05:03:32;;;;;;;62.25;36.33;;;;;;;-1.75;100.00;98447.69;6124313;23;20012;-81
2021/12/05 05:06:05;;;;;;;64.75;36.03;;;;;;;-1.84;100.00;98443.09;6125510;23;20014;-81
2021/12/05 05:08:32;;;;;;;68.03;37.80;;;;;;;-1.88;100.00;98444.19;6125048;23;20034;-81
2021/12/05 05:10:59;;;;;;;62.72;35.58;;;;;;;-1.95;100.00;98435.16;6124704;23;20016;-81
2021/12/05 05:13:26;;;;;;;68.78;37.22;;;;;;;-2.00;100.00;98430.25;6122994;23;20490;-81
2021/12/05 05:15:53;;;;;;;63.78;36.38;;;;;;;-1.99;100.00;98429.31;6125651;23;20300;-81
2021/12/05 05:18:20;;;;;;;65.25;37.60;;;;;;;-1.97;100.00;98435.25;6125801;23;20439;-81
2021/12/05 05:21:10;;;;;;;67.05;36.72;;;;;;;-1.94;100.00;98434.25;6127444;23;20137;-82
2021/12/05 05:45:23;;;;;;;63.17;35.85;;;;;;;-1.91;100.00;98441.78;6129956;23;20040;-81
2021/12/05 05:50:27;;;;;;;59.05;35.75;;;;;;;-1.95;100.00;98445.50;6128689;23;20010;-81
2021/12/05 05:52:52;;;;;;;59.38;35.28;;;;;;;-1.93;100.00;98443.63;6129153;23;20033;-81
2021/12/05 05:55:18;;;;;;;63.67;35.42;;;;;;;-1.95;100.00;98440.34;6140884;23;20005;-81
2021/12/05 06:00:27;;;;;;;60.10;34.13;;;;;;;-2.08;100.00;98451.41;6153090;23;20025;-79
2021/12/05 06:05:37;;;;;;;59.03;33.88;;;;;;;-2.20;100.00;98465.03;6148707;23;20013;-80
2021/12/05 06:08:03;;;;;;;62.00;34.90;;;;;;;-2.26;100.00;98457.66;6131726;23;20013;-81
2021/12/05 06:10:31;;;;;;;66.05;35.78;;;;;;;-2.27;100.00;98461.16;6129313;23;20013;-81
2021/12/05 06:12:58;;;;;;;59.63;35.72;;;;;;;-2.28;100.00;98462.06;6130120;23;20013;-81
2021/12/05 06:15:26;;;;;;;58.95;36.72;;;;;;;-2.28;100.00;98449.16;6130746;23;20014;-81
2021/12/05 06:17:53;;;;;;;63.05;34.90;;;;;;;-2.32;100.00;98452.84;6130093;23;20037;-82
2021/12/05 06:20:23;;;;;;;60.20;35.47;;;;;;;-2.31;100.00;98454.50;6129287;23;20712;-81
2021/12/05 06:22:48;;;;;;;;;;;;;;;-2.33;100.00;98448.59;6128571;23;20009;-81
2021/12/05 06:25:22;;;;;;;55.25;33.58;;;;;;;-2.35;100.00;98447.84;6128428;23;20053;-81
2021/12/05 06:27:53;;;;;;;60.50;32.97;;;;;;;-2.39;100.00;98446.38;6127037;23;20053;-81
2021/12/05 06:38:28;;;;;;;61.92;34.08;;;;;;;-2.31;100.00;98459.69;6125581;23;20024;-81
2021/12/05 06:48:32;;;;;;;58.55;34.42;;;;;;;-2.35;100.00;98473.66;6125112;23;20010;-81
2021/12/05 06:50:58;;;;;;;57.72;33.13;;;;;;;-2.31;100.00;98469.19;6127394;23;20100;-82
2021/12/05 06:53:24;;;;;;;64.70;35.10;;;;;;;-2.28;100.00;98469.81;6133440;23;20009;-80
2021/12/05 06:55:50;;;;;;;63.70;35.45;;;;;;;-2.26;100.00;98470.56;6126303;23;20032;-82
2021/12/05 06:58:15;;;;;;;62.53;34.85;;;;;;;-2.22;100.00;98468.63;6126660;23;20080;-82
2021/12/05 07:00:41;;;;;;;58.67;33.97;;;;;;;-2.18;100.00;98470.94;6149082;23;20491;-82
2021/12/05 07:03:08;;;;;;;59.35;33.33;;;;;;;-2.16;100.00;98466.53;6126936;23;20038;-82
2021/12/05 07:08:04;;;;;;;61.70;34.72;;;;;;;-2.07;100.00;98471.16;6126141;23;20364;-80
2021/12/05 07:10:33;;;;;;;59.13;34.88;;;;;;;-1.98;100.00;98456.00;6126323;23;20044;-81
2021/12/05 07:26:21;;;;;;;55.60;32.17;;;;;;;-2.01;100.00;98463.97;6126693;23;19919;-81
2021/12/05 07:42:33;;;;;;;59.42;33.67;;;;;;;-1.97;100.00;98499.03;6124433;23;20064;-81
2021/12/05 07:45:03;;;;;;;59.10;34.70;;;;;;;-1.92;100.00;98502.19;6125890;23;20017;-80
2021/12/05 07:47:31;;;;;;;66.85;36.05;;;;;;;-1.90;100.00;98505.53;6125180;23;20018;-80
2021/12/05 07:50:02;;;;;;;60.65;34.47;;;;;;;-1.85;100.00;98519.00;6131475;23;20049;-80
2021/12/05 07:52:29;;;;;;;59.10;33.33;;;;;;;-1.79;100.00;98497.94;6125572;23;20041;-80
2021/12/05 07:55:03;;;;;;;58.83;34.03;;;;;;;-1.68;100.00;98492.97;6127173;23;20014;-81
2021/12/05 07:57:39;;;;;;;65.03;35.42;;;;;;;-1.60;100.00;98498.50;6135701;23;20031;-81
2021/12/05 08:16:47;;;;;;;60.42;33.58;;;;;;;-1.30;100.00;98485.47;6126490;23;20006;-82
2021/12/05 08:19:13;;;;;;;61.28;35.60;;;;;;;-1.31;100.00;98494.16;6124569;23;20109;-81
2021/12/05 08:21:38;;;;;;;58.08;34.92;;;;;;;-1.29;100.00;98493.09;6125545;23;20025;-81
2021/12/05 08:24:04;;;;;;;55.38;33.92;;;;;;;-1.37;100.00;98492.78;6125079;23;20010;-80
2021/12/05 08:26:33;;;;;;;61.58;34.95;;;;;;;-1.33;100.00;98490.81;6124388;23;20010;-81
2021/12/05 08:29:13;;;;;;;58.22;34.72;;;;;;;-1.28;100.00;98497.38;6125042;23;20061;-81
2021/12/05 09:28:31;;;;;;;65.90;38.85;;;;;;;0.44;100.00;98485.22;6130322;23;20018;-87
2021/12/05 10:06:54;;;;;;;59.70;33.92;;;;;;;1.20;100.00;98457.28;6088967;23;20021;-87
2021/12/05 10:33:44;;;;;;;49.40;29.92;;;;;;;2.18;100.00;98427.41;6126944;23;20016;-89
2021/12/05 10:36:25;;;;;;;43.78;29.10;;;;;;;2.25;100.00;98412.94;6124416;23;20010;-86
2021/12/05 10:38:55;;;;;;;44.47;30.30;;;;;;;2.34;100.00;98414.84;6148740;23;20010;-87
2021/12/05 10:44:00;;;;;;;50.05;30.67;;;;;;;2.50;100.00;98412.69;6128364;23;20335;-88
2021/12/05 10:46:29;;;;;;;45.72;28.08;;;;;;;2.58;100.00;98409.50;6124884;23;20013;-88
2021/12/05 10:49:03;;;;;;;57.67;30.73;;;;;;;2.66;100.00;98410.53;6124292;23;20072;-87
2021/12/05 10:51:48;;;;;;;46.88;29.52;;;;;;;2.72;100.00;98397.03;6124196;23;20010;-87
2021/12/05 10:54:26;;;;;;;49.65;29.27;;;;;;;2.76;99.87;98398.47;6099817;23;20025;-88
2021/12/05 10:56:57;;;;;;;46.08;27.45;;;;;;;2.82;100.00;98386.72;6118660;23;20088;-88
2021/12/05 10:59:36;;;;;;;46.67;28.83;;;;;;;2.85;99.57;98383.84;6099621;23;20018;-87
2021/12/05 11:02:05;;;;;;;47.60;28.90;;;;;;;2.92;99.74;98389.41;6150870;23;20065;-87
2021/12/05 11:04:38;;;;;;;48.35;29.75;;;;;;;2.96;99.63;98388.19;6126332;23;20058;-87
2021/12/05 11:07:13;;;;;;;40.88;29.70;;;;;;;3.01;99.47;98375.63;6125025;23;20406;-88
2021/12/05 11:09:42;;;;;;;49.67;28.85;;;;;;;3.06;99.49;98368.28;6125238;23;20021;-88
2021/12/05 11:12:21;;;;;;;47.13;28.77;;;;;;;3.11;99.48;98366.13;6125775;23;20021;-87
2021/12/05 11:14:51;;;;;;;43.90;29.27;;;;;;;3.20;99.95;98357.53;6151107;23;20025;-88
2021/12/05 11:17:21;;;;;;;43.88;26.92;;;;;;;3.33;100.00;98359.97;6126757;23;20153;-88
2021/12/05 11:20:09;;;;;;;38.80;26.45;;;;;;;3.48;98.99;98354.31;6126435;23;20440;-88
2021/12/05 11:22:37;;;;;;;44.22;27.23;;;;;;;3.63;99.19;98352.22;6101698;23;20014;-87
2021/12/05 11:25:22;;;;;;;41.03;26.30;;;;;;;3.78;98.06;98342.25;6125684;23;20010;-87
2021/12/05 11:27:53;;;;;;;43.92;28.13;;;;;;;3.95;97.58;98341.66;6125447;23;20427;-87
2021/12/05 11:30:31;;;;;;;41.50;27.10;;;;;;;4.09;96.67;98333.47;6127995;23;20473;-87
2021/12/05 11:33:02;;;;;;;38.30;25.73;;;;;;;4.25;96.13;98333.81;6126079;23;20013;-87
2021/12/05 11:35:44;;;;;;;40.75;26.08;;;;;;;4.41;95.20;98323.69;6100256;23;20045;-88
2021/12/05 11:38:15;;;;;;;40.80;27.08;;;;;;;4.58;94.45;98319.59;6125139;23;20018;-87
2021/12/05 11:40:50;;;;;;;44.65;27.42;;;;;;;4.70;92.94;98312.47;6129402;23;20006;-89
2021/12/05 11:43:18;;;;;;;39.15;27.15;;;;;;;4.82;92.27;98303.53;6130177;23;20061;-88
2021/12/05 11:46:03;;;;;;;41.97;25.85;;;;;;;4.97;91.49;98309.16;6128233;23;20069;-88
2021/12/05 11:48:30;;;;;;;39.58;25.55;;;;;;;5.09;91.97;98300.22;6126032;23;20022;-87
2021/12/05 11:50:58;;;;;;;39.35;25.02;;;;;;;5.24;91.19;98297.03;6125968;23;20014;-87
2021/12/05 11:53:40;;;;;;;40.72;25.10;;;;;;;5.43;90.22;98300.56;6102171;23;20184;-89
2021/12/05 11:56:09;;;;;;;34.10;23.25;;;;;;;5.59;89.57;98299.06;6138333;23;20006;-88
2021/12/05 11:58:35;;;;;;;39.15;24.00;;;;;;;5.76;88.73;98287.84;6145684;23;20109;-88
2021/12/05 12:01:08;;;;;;;35.55;22.13;;;;;;;5.90;87.28;98291.78;6146262;23;20025;-89
2021/12/05 12:03:36;;;;;;;33.10;21.42;;;;;;;6.02;86.11;98279.34;6117582;23;20022;-88
2021/12/05 12:06:02;;;;;;;38.83;23.83;;;;;;;6.13;85.65;98279.97;6171562;23;20006;-89
2021/12/05 12:08:27;;;;;;;40.88;25.42;;;;;;;6.27;84.56;98280.47;6175287;23;20040;-89
2021/12/05 12:10:57;;;;;;;41.53;25.83;;;;;;;6.40;84.18;98280.94;6148910;23;20009;-88
2021/12/05 12:13:30;;;;;;;38.90;24.85;;;;;;;6.47;83.42;98271.53;6119027;23;20478;-86
2021/12/05 12:15:59;;;;;;;41.55;28.02;;;;;;;6.58;82.95;98268.69;6142842;23;20061;-90
2021/12/05 12:18:32;;;;;;;42.58;27.58;;;;;;;6.65;82.33;98274.97;6138091;23;20018;-91
2021/12/05 12:21:03;;;;;;;39.38;27.67;;;;;;;6.75;80.98;98275.72;6150696;23;20014;-87
2021/12/05 12:23:29;;;;;;;41.13;27.33;;;;;;;6.87;80.79;98276.31;6125621;23;20010;-88
2021/12/05 12:25:58;;;;;;;34.50;23.65;;;;;;;6.95;77.78;98279.03;6125252;23;20013;-88
2021/12/05 12:28:24;;;;;;;36.88;24.95;;;;;;;7.00;75.34;98268.91;6100810;23;20481;-88
2021/12/05 12:30:59;;;;;;;31.52;22.48;;;;;;;7.02;74.01;98266.94;6150619;23;20018;-89
2021/12/05 12:33:43;;;;;;;33.97;23.90;;;;;;;7.01;74.65;98256.63;6125079;23;20419;-88
2021/12/05 12:36:09;;;;;;;39.08;25.38;;;;;;;7.03;75.29;98257.28;6100295;23;20161;-90
2021/12/05 12:38:38;;;;;;;34.45;24.13;;;;;;;7.10;75.44;98255.69;6149828;23;20005;-89
2021/12/05 12:41:13;;;;;;;39.47;25.30;;;;;;;7.22;75.83;98251.84;6126886;23;20088;-87
2021/12/05 12:43:41;;;;;;;35.90;23.55;;;;;;;7.34;74.96;98250.63;6100246;23;20010;-88
2021/12/05 12:46:21;;;;;;;28.90;21.00;;;;;;;7.41;72.89;98241.16;6100625;23;20014;-89
2021/12/05 12:48:49;;;;;;;28.03;19.47;;;;;;;7.44;69.97;98240.00;6148775;23;20103;-90
2021/12/05 12:51:50;;;;;;;26.63;18.95;;;;;;;7.54;66.59;98236.28;6126414;23;20238;-91
2021/12/05 12:54:25;;;;;;;27.80;18.80;;;;;;;7.66;68.47;98232.44;6094975;23;20411;-89
2021/12/05 12:57:13;;;;;;;21.50;16.02;;;;;;;7.78;64.97;98228.53;6125147;23;20431;-90
2021/12/05 12:59:44;;;;;;;24.52;18.60;;;;;;;7.87;64.39;98232.03;6149891;23;20324;-89
2021/12/05 13:03:12;;;;;;;26.80;18.45;;;;;;;7.97;64.20;98231.91;6127778;23;20012;-89
2021/12/05 13:10:44;;;;;;;31.77;20.10;;;;;;;8.29;62.53;98221.53;6174890;23;20005;-90
2021/12/05 13:13:20;;;;;;;32.03;21.10;;;;;;;8.36;63.32;98222.56;6173871;23;20018;-90
2021/12/05 13:15:52;;;;;;;31.75;21.10;;;;;;;8.46;63.78;98222.41;6150776;23;20041;-91
2021/12/05 13:18:33;;;;;;;27.83;18.80;;;;;;;8.60;62.69;98224.38;6126478;23;20419;-91
2021/12/05 13:21:17;;;;;;;24.58;17.27;;;;;;;8.73;60.55;98219.47;6126720;23;20013;-90
2021/12/05 13:23:50;;;;;;;24.90;18.77;;;;;;;8.79;59.14;98212.72;6127066;23;20432;-90
2021/12/05 13:26:34;;;;;;;25.10;18.65;;;;;;;8.89;58.78;98202.88;6101782;23;20010;-89
2021/12/05 13:29:19;;;;;;;25.45;18.73;;;;;;;8.96;59.28;98206.47;6125698;23;20022;-90
2021/12/05 13:32:07;;;;;;;28.52;21.02;;;;;;;9.06;59.66;98209.78;6125527;23;20335;-90
2021/12/05 13:34:40;;;;;;;28.85;19.80;;;;;;;9.04;59.40;98204.69;6150509;23;20768;-91
2021/12/05 13:37:06;;;;;;;26.27;19.05;;;;;;;8.93;59.98;98198.94;6127250;23;20010;-89
2021/12/05 13:40:08;;;;;;;28.13;19.52;;;;;;;8.80;59.58;98198.59;6130801;23;20121;-91
2021/12/05 13:42:38;;;;;;;24.33;18.00;;;;;;;8.72;60.90;98195.97;6162657;23;20014;-90
2021/12/05 13:45:07;;;;;;;;;;;;;;;8.50;59.68;98203.50;6145161;23;20014;-90
2021/12/05 13:48:03;;;;;;;26.45;17.77;;;;;;;8.36;60.27;98206.78;6145799;23;19944;-89
2021/12/05 13:50:41;;;;;;;27.75;19.17;;;;;;;8.24;61.40;98205.41;6150288;23;20022;-90
2021/12/05 13:53:06;;;;;;;27.98;18.95;;;;;;;8.11;61.81;98208.50;6170157;23;20084;-89
2021/12/05 13:55:53;;;;;;;23.90;16.30;;;;;;;7.89;58.36;98208.25;6130695;23;20285;-89
2021/12/05 13:58:38;;;;;;;23.83;16.30;;;;;;;7.77;59.64;98205.91;6127740;23;20014;-88
2021/12/05 14:01:31;;;;;;;21.77;15.63;;;;;;;7.67;58.72;98215.69;6154253;23;20030;-89
2021/12/05 14:04:16;;;;;;;16.75;13.73;;;;;;;7.60;58.79;98213.88;6135278;23;20020;-88
2021/12/05 14:07:04;;;;;;;20.88;15.00;;;;;;;7.54;58.98;98215.28;6133916;23;20081;-90
2021/12/05 14:09:47;;;;;;;19.73;14.05;;;;;;;7.48;59.25;98215.13;6157204;23;20021;-90
2021/12/05 14:12:27;;;;;;;24.02;14.73;;;;;;;7.40;59.21;98213.25;6109822;23;20027;-89
2021/12/05 14:14:55;;;;;;;;;;;;;;;7.31;59.14;98214.19;6132794;23;20025;-91
2021/12/05 14:17:25;;;;;;;20.95;15.32;;;;;;;7.27;59.79;98218.09;6126813;23;20290;-91
2021/12/05 14:20:00;;;;;;;22.83;16.77;;;;;;;7.23;60.82;98219.41;6150288;23;20018;-89
2021/12/05 14:22:29;;;;;;;26.27;16.20;;;;;;;7.19;61.48;98226.72;6128006;23;20088;-88
2021/12/05 14:24:57;;;;;;;24.00;16.60;;;;;;;7.16;62.00;98232.31;6129941;23;20080;-90
2021/12/05 14:27:31;;;;;;;24.00;16.98;;;;;;;7.13;63.74;98231.78;6128389;23;20018;-89
2021/12/05 14:29:58;;;;;;;28.92;18.33;;;;;;;7.11;63.81;98228.50;6127329;23;20501;-91
2021/12/05 14:32:33;;;;;;;26.85;18.08;;;;;;;7.10;64.10;98227.66;6127738;23;20013;-90
2021/12/05 14:35:05;;;;;;;25.17;17.50;;;;;;;7.10;64.92;98232.09;6127685;23;20088;-89
2021/12/05 14:37:35;;;;;;;23.02;17.75;;;;;;;7.08;65.11;98234.03;6130848;23;20037;-89
2021/12/05 14:40:07;;;;;;;23.27;17.23;;;;;;;7.05;65.24;98223.84;6132367;23;20010;-88
2021/12/05 14:42:35;;;;;;;22.38;16.65;;;;;;;7.04;65.61;98222.19;6135367;23;20013;-90
2021/12/05 14:45:06;;;;;;;25.35;18.40;;;;;;;6.98;66.30;98224.47;6137055;23;20012;-89
2021/12/05 14:47:33;;;;;;;26.33;15.85;;;;;;;6.95;66.17;98223.97;6138276;23;20014;-90
2021/12/05 14:50:08;;;;;;;23.33;16.63;;;;;;;6.90;66.15;98227.00;6138365;23;20069;-89
2021/12/05 14:52:37;;;;;;;26.00;18.13;;;;;;;6.87;65.86;98229.13;6129799;23;20010;-90
2021/12/05 14:55:13;;;;;;;23.50;16.05;;;;;;;6.84;64.61;98221.53;6102039;23;20064;-90
2021/12/05 14:57:45;;;;;;;23.65;17.48;;;;;;;6.81;64.37;98222.69;6149444;23;20123;-90
2021/12/05 15:00:17;;;;;;;24.08;18.05;;;;;;;6.81;64.03;98230.56;6126042;23;20100;-90
2021/12/05 15:02:43;;;;;;;27.33;17.25;;;;;;;6.79;64.06;98232.50;6149657;23;20025;-91
2021/12/05 15:05:12;;;;;;;24.40;16.35;;;;;;;6.77;63.94;98237.09;6126420;23;20340;-88
2021/12/05 15:07:39;;;;;;;22.80;16.33;;;;;;;6.75;64.55;98239.03;6128604;23;20013;-89
2021/12/05 15:10:06;;;;;;;24.52;18.60;;;;;;;6.71;64.61;98239.47;6125304;23;20042;-89
2021/12/05 15:12:42;;;;;;;25.63;17.60;;;;;;;6.68;64.98;98237.16;6128419;23;20025;-89
2021/12/05 15:15:25;;;;;;;23.10;16.65;;;;;;;6.63;64.91;98242.84;6128282;23;20010;-90
2021/12/05 15:19:15;;;;;;;26.05;17.30;;;;;;;6.59;65.02;98249.38;6073204;23;20030;-90
2021/12/05 15:21:48;;;;;;;27.88;18.13;;;;;;;6.56;65.41;98249.66;6069845;23;20023;-89
2021/12/05 15:24:19;;;;;;;28.77;18.50;;;;;;;6.51;65.79;98257.97;6070757;23;20062;-89
2021/12/05 15:26:45;;;;;;;26.83;18.10;;;;;;;6.50;65.80;98260.72;6070803;23;20007;-90
2021/12/05 15:29:11;;;;;;;29.77;20.02;;;;;;;6.47;66.37;98258.41;6070959;23;20007;-89
2021/12/05 15:31:40;;;;;;;28.13;19.30;;;;;;;6.43;66.37;98260.50;6096128;23;20480;-89
2021/12/05 15:34:28;;;;;;;25.90;19.05;;;;;;;6.39;66.86;98263.56;6068824;23;20429;-88
2021/12/05 15:36:55;;;;;;;32.65;20.20;;;;;;;6.34;67.26;98260.56;6069694;23;20066;-89
2021/12/05 15:39:24;;;;;;;27.50;18.55;;;;;;;6.30;67.02;98272.31;6072048;23;19999;-90
2021/12/05 15:41:53;;;;;;;27.00;18.10;;;;;;;6.30;66.94;98274.94;6072228;23;20460;-88
2021/12/05 15:44:39;;;;;;;30.90;21.05;;;;;;;6.23;67.97;98271.25;6075658;23;20465;-89
2021/12/05 15:47:13;;;;;;;29.17;20.80;;;;;;;6.15;68.97;98282.44;6075449;23;20341;-87
2021/12/05 15:49:46;;;;;;;30.75;19.85;;;;;;;6.05;69.67;98272.03;6049413;23;20317;-86
2021/12/05 15:52:12;;;;;;;31.38;20.50;;;;;;;5.99;70.35;98275.22;6074273;23;20015;-87
2021/12/05 15:54:39;;;;;;;29.98;20.63;;;;;;;5.95;70.51;98286.94;6076122;23;20441;-89
2021/12/05 15:57:11;;;;;;;28.30;20.05;;;;;;;5.84;72.36;98288.88;6079841;23;20007;-83
2021/12/05 15:59:40;;;;;;;35.13;20.83;;;;;;;5.74;73.19;98283.69;6072737;23;20006;-83
2021/12/05 16:02:10;;;;;;;29.52;20.08;;;;;;;5.63;74.36;98286.50;6076205;23;20034;-83
2021/12/05 16:04:38;;;;;;;34.00;24.10;;;;;;;5.53;74.74;98290.94;6076757;23;20094;-84
2021/12/05 16:07:08;;;;;;;37.33;27.48;;;;;;;5.46;75.81;98287.22;6083580;23;19999;-85
2021/12/05 16:09:35;;;;;;;33.85;22.38;;;;;;;5.31;76.92;98292.91;6080497;23;20015;-84
2021/12/05 16:12:18;;;;;;;39.33;25.38;;;;;;;5.23;77.84;98295.41;6077797;23;20010;-87
2021/12/05 16:14:52;;;;;;;41.33;26.48;;;;;;;5.16;78.07;98293.47;6066284;23;20025;-80
2021/12/05 16:17:23;;;;;;;31.45;23.58;;;;;;;5.11;78.42;98293.91;6116062;23;20014;-81
2021/12/05 16:20:07;;;;;;;32.95;24.67;;;;;;;5.05;79.50;98302.31;6147836;23;20021;-81
2021/12/05 16:23:04;;;;;;;42.63;25.05;;;;;;;5.00;79.75;98301.06;6123663;23;20082;-80
2021/12/05 16:25:31;;;;;;;39.97;26.70;;;;;;;4.96;79.13;98303.13;6124154;23;20005;-83
2021/12/05 16:28:02;;;;;;;40.97;27.20;;;;;;;4.91;79.47;98305.31;6124336;23;20002;-79
2021/12/05 16:30:39;;;;;;;48.67;27.90;;;;;;;4.86;80.17;98302.28;6124324;23;20014;-80
2021/12/05 16:33:06;;;;;;;56.80;33.45;;;;;;;4.83;80.34;98302.59;6139305;23;20024;-79
2021/12/05 16:35:41;;;;;;;55.80;33.22;;;;;;;4.79;81.69;98303.78;6147697;23;20005;-80
2021/12/05 16:38:30;;;;;;;50.08;29.13;;;;;;;4.75;81.67;98310.28;6134723;23;20018;-78
2021/12/05 16:40:57;;;;;;;44.90;27.38;;;;;;;4.67;82.26;98315.34;6123017;23;20013;-80
2021/12/05 16:43:24;;;;;;;48.80;29.48;;;;;;;4.52;83.02;98315.75;6125563;23;20042;-79
2021/12/05 16:45:55;;;;;;;41.35;27.13;;;;;;;4.40;83.99;98324.66;6123121;23;20450;-80
2021/12/05 16:48:21;;;;;;;48.50;29.35;;;;;;;4.29;84.58;98330.00;6124659;23;20420;-80
2021/12/05 16:50:48;;;;;;;53.67;30.45;;;;;;;4.17;85.58;98331.06;6123724;23;20018;-80
2021/12/05 16:53:15;;;;;;;50.33;29.95;;;;;;;4.07;86.48;98335.38;6124166;23;20009;-79
2021/12/05 16:55:45;;;;;;;55.42;32.92;;;;;;;3.92;87.48;98326.28;6123858;23;20262;-80
2021/12/05 16:58:17;;;;;;;55.95;32.00;;;;;;;3.79;88.81;98336.09;6124356;23;20025;-80
2021/12/05 17:00:52;;;;;;;50.00;30.58;;;;;;;3.68;90.17;98339.63;6123789;23;20010;-80
2021/12/05 17:03:23;;;;;;;49.17;29.63;;;;;;;3.56;91.46;98330.22;6123803;23;20010;-80
2021/12/05 17:05:51;;;;;;;57.53;31.45;;;;;;;3.46;92.27;98332.78;6123543;23;20053;-79
2021/12/05 17:08:22;;;;;;;53.95;32.72;;;;;;;3.37;93.55;98336.13;6123389;23;20051;-80
2021/12/05 17:11:00;;;;;;;49.53;31.23;;;;;;;3.32;93.36;98335.69;6123347;23;20033;-80
2021/12/05 17:13:36;;;;;;;57.83;31.92;;;;;;;3.26;94.59;98338.78;6124049;23;20702;-80
2021/12/05 17:16:05;;;;;;;54.05;29.08;;;;;;;3.18;95.68;98338.63;6123473;23;20431;-79
2021/12/05 17:18:58;;;;;;;48.53;28.67;;;;;;;3.13;96.00;98343.34;6124124;23;20049;-79